createdAt,value
2022-12-31T00:03:34.114Z,69.46
2022-12-31T00:07:50.410Z,68.72
2022-12-31T00:12:07.020Z,67.83
2022-12-31T00:16:28.665Z,67.93
2022-12-31T00:20:44.939Z,67.51
2022-12-31T00:25:01.179Z,69.31
2022-12-31T00:29:17.385Z,69.22
2022-12-31T00:33:33.605Z,68.34
2022-12-31T00:37:51.546Z,68.78
2022-12-31T00:42:07.928Z,67.84
2022-12-31T00:46:25.379Z,66.90
2022-12-31T00:50:41.625Z,67.26
2022-12-31T00:54:58.058Z,67.54
2022-12-31T00:59:14.204Z,68.36
2022-12-31T01:03:30.391Z,67.93
2022-12-31T01:07:46.614Z,68.55
2022-12-31T01:12:03.730Z,68.47
2022-12-31T01:16:22.412Z,68.51
2022-12-31T01:20:40.486Z,67.99
2022-12-31T01:24:56.696Z,67.74
2022-12-31T01:29:14.496Z,68.15
2022-12-31T01:33:30.775Z,67.94
2022-12-31T01:37:49.468Z,68.15
2022-12-31T01:42:05.891Z,68.77
2022-12-31T01:46:25.454Z,67.96
2022-12-31T01:50:44.567Z,68.05
2022-12-31T01:55:28.655Z,68.67
2022-12-31T01:59:45.622Z,68.35
2022-12-31T02:04:05.604Z,69.24
2022-12-31T02:08:22.280Z,68.37
2022-12-31T02:12:38.681Z,68.39
2022-12-31T02:17:00.693Z,68.84
2022-12-31T02:21:30.208Z,68.64
2022-12-31T02:25:55.348Z,68.74
2022-12-31T02:30:32.471Z,68.43
2022-12-31T02:35:04.676Z,68.70
2022-12-31T02:39:21.419Z,68.63
2022-12-31T02:43:46.006Z,68.72
2022-12-31T02:48:07.976Z,68.27
2022-12-31T02:52:49.146Z,68.93
2022-12-31T02:57:34.142Z,68.54
2022-12-31T03:02:14.330Z,68.52
2022-12-31T03:06:31.468Z,68.24
2022-12-31T03:10:47.655Z,68.39
2022-12-31T03:15:06.838Z,67.93
2022-12-31T03:19:41.345Z,68.15
2022-12-31T03:24:16.061Z,68.40
2022-12-31T03:28:32.260Z,68.58
2022-12-31T03:32:49.421Z,69.26
2022-12-31T03:37:05.575Z,69.01
2022-12-31T03:41:21.725Z,68.20
2022-12-31T03:45:38.053Z,67.90
2022-12-31T03:49:54.362Z,67.74
2022-12-31T03:54:10.679Z,67.75
2022-12-31T03:58:26.947Z,67.89
2022-12-31T04:02:43.132Z,67.66
2022-12-31T04:06:59.349Z,69.35
2022-12-31T04:11:20.649Z,69.36
2022-12-31T04:15:37.244Z,69.17
2022-12-31T04:19:53.498Z,69.15
2022-12-31T04:24:09.954Z,67.98
2022-12-31T04:28:26.316Z,68.74
2022-12-31T04:32:42.825Z,68.52
2022-12-31T04:36:59.298Z,68.28
2022-12-31T04:41:18.247Z,69.09
2022-12-31T04:45:34.499Z,68.58
2022-12-31T04:49:50.604Z,67.52
2022-12-31T04:54:06.890Z,67.73
2022-12-31T04:58:23.093Z,67.54
2022-12-31T05:02:39.472Z,67.77
2022-12-31T05:06:55.812Z,68.62
2022-12-31T05:11:12.044Z,67.57
2022-12-31T05:15:28.298Z,68.22
2022-12-31T05:19:44.443Z,67.06
2022-12-31T05:24:00.615Z,67.02
2022-12-31T05:28:17.097Z,66.07
2022-12-31T05:32:33.759Z,65.75
2022-12-31T05:36:49.906Z,66.85
2022-12-31T05:41:07.928Z,67.34
2022-12-31T05:45:30.333Z,67.18
2022-12-31T05:49:47.292Z,66.82
2022-12-31T05:54:03.528Z,66.50
2022-12-31T05:58:19.623Z,66.88
2022-12-31T06:02:35.877Z,65.68
2022-12-31T06:06:52.198Z,65.69
2022-12-31T06:11:08.370Z,65.99
2022-12-31T06:15:24.490Z,65.90
2022-12-31T06:19:40.669Z,64.97
2022-12-31T06:23:56.874Z,66.07
2022-12-31T06:28:19.846Z,64.79
2022-12-31T06:32:36.668Z,64.96
2022-12-31T06:36:52.953Z,65.30
2022-12-31T06:41:11.414Z,65.54
2022-12-31T06:45:28.455Z,64.90
2022-12-31T06:49:44.831Z,65.49
2022-12-31T06:54:01.023Z,65.11
2022-12-31T06:58:18.043Z,65.12
2022-12-31T07:02:47.009Z,65.66
2022-12-31T07:07:36.934Z,65.12
2022-12-31T13:51:19.135Z,82.12
2022-12-31T13:55:45.249Z,76.01
2022-12-31T14:00:04.935Z,70.85
2022-12-31T14:04:47.748Z,68.35
2022-12-31T14:09:05.051Z,66.26
2022-12-31T14:14:15.519Z,64.27
2022-12-31T14:18:46.720Z,64.67
2022-12-31T14:23:30.012Z,63.49
2022-12-31T14:27:46.826Z,63.08
2022-12-31T14:32:20.362Z,62.13
2022-12-31T14:37:11.434Z,60.80
2022-12-31T14:41:51.185Z,61.27
2022-12-31T14:46:27.536Z,60.61
2022-12-31T14:50:46.374Z,61.07
2022-12-31T14:55:09.897Z,60.74
2022-12-31T14:59:28.362Z,62.16
2022-12-31T15:03:46.326Z,61.12
2022-12-31T15:08:22.321Z,61.30
2022-12-31T15:13:06.531Z,61.56
2022-12-31T15:17:36.639Z,61.36
2022-12-31T15:22:27.839Z,61.31
2022-12-31T15:26:53.133Z,62.03
2022-12-31T15:31:18.518Z,61.92
2022-12-31T15:35:48.409Z,62.21
2022-12-31T15:40:25.809Z,62.47
2022-12-31T15:45:02.384Z,62.08
2022-12-31T15:49:23.281Z,61.33
2022-12-31T15:53:52.775Z,61.09
2022-12-31T15:58:14.468Z,61.70
2022-12-31T16:02:30.779Z,62.10
2022-12-31T16:06:50.689Z,61.65
2022-12-31T16:11:08.866Z,62.01
2022-12-31T16:15:28.514Z,61.80
2022-12-31T16:19:48.651Z,62.03
2022-12-31T16:24:06.397Z,62.05
2022-12-31T16:28:25.313Z,61.61
2022-12-31T16:32:42.599Z,62.32
2022-12-31T16:37:04.498Z,62.09
2022-12-31T16:41:22.233Z,62.71
2022-12-31T16:45:38.886Z,63.42
2022-12-31T16:50:04.234Z,62.75
2022-12-31T16:54:42.179Z,62.32
2022-12-31T16:59:06.621Z,62.15
2022-12-31T17:03:28.464Z,61.83
2022-12-31T17:07:44.663Z,62.34
2022-12-31T17:12:16.513Z,62.11
2022-12-31T17:16:34.281Z,62.62
2022-12-31T17:20:52.580Z,62.60
2022-12-31T17:25:09.790Z,62.42
2022-12-31T17:29:26.798Z,62.37
2022-12-31T17:33:42.980Z,62.25
2022-12-31T17:38:18.046Z,62.88
2022-12-31T17:42:37.099Z,62.31
2022-12-31T17:46:53.835Z,62.43
2022-12-31T17:51:10.312Z,63.06
2022-12-31T17:55:26.810Z,62.19
2022-12-31T17:59:42.951Z,61.70
2022-12-31T18:03:59.110Z,62.52
2022-12-31T18:08:15.334Z,62.62
2022-12-31T18:12:31.584Z,62.93
2022-12-31T18:16:48.467Z,62.59
2022-12-31T18:21:07.825Z,62.90
2022-12-31T18:25:24.597Z,62.90
2022-12-31T18:29:40.764Z,62.88
2022-12-31T18:33:59.243Z,63.35
2022-12-31T18:38:17.335Z,63.29
2022-12-31T18:42:33.511Z,63.33
2022-12-31T18:46:50.923Z,63.20
2022-12-31T18:51:08.038Z,63.39
2022-12-31T18:55:39.848Z,62.67
2022-12-31T18:59:56.277Z,62.83
2022-12-31T19:04:26.637Z,62.14
2022-12-31T19:08:43.937Z,61.87
2022-12-31T19:13:00.117Z,62.50
2022-12-31T19:17:16.298Z,62.11
2022-12-31T19:21:32.582Z,62.13
2022-12-31T19:25:49.520Z,62.63
2022-12-31T19:30:06.300Z,62.98
2022-12-31T19:34:22.571Z,62.74
2022-12-31T19:38:38.700Z,63.03
2022-12-31T19:42:56.056Z,62.78
2022-12-31T19:47:13.405Z,64.29
2022-12-31T19:51:29.545Z,64.47
2022-12-31T19:55:45.854Z,64.74
2022-12-31T20:00:02.027Z,65.69
2022-12-31T20:04:18.462Z,64.32
2022-12-31T20:08:36.714Z,64.28
2022-12-31T20:12:52.932Z,64.50
2022-12-31T20:17:10.743Z,63.55
2022-12-31T20:21:29.262Z,63.99
2022-12-31T20:25:45.419Z,63.39
2022-12-31T20:30:01.638Z,63.91
2022-12-31T20:34:18.044Z,65.23
2022-12-31T20:38:34.507Z,64.66
2022-12-31T20:42:50.641Z,64.84
2022-12-31T20:47:06.872Z,65.12
2022-12-31T20:51:24.366Z,65.11
2022-12-31T20:55:44.573Z,65.11
2022-12-31T21:00:01.332Z,65.18
2022-12-31T21:04:17.718Z,64.17
2022-12-31T21:08:35.175Z,63.45
2022-12-31T21:12:54.306Z,63.33
2022-12-31T21:17:10.454Z,64.22
2022-12-31T21:21:27.350Z,64.95
2022-12-31T21:25:46.241Z,63.94
2022-12-31T21:30:19.537Z,63.72
2022-12-31T21:34:36.133Z,63.23
2022-12-31T21:38:52.458Z,63.23
2022-12-31T21:43:10.017Z,64.19
2022-12-31T21:47:47.676Z,64.10
2022-12-31T21:52:22.681Z,65.66
2022-12-31T21:56:38.877Z,65.54
2022-12-31T22:01:15.540Z,65.37
2022-12-31T22:05:31.803Z,66.02
2022-12-31T22:09:48.017Z,66.37
2022-12-31T22:14:04.175Z,66.22
2022-12-31T22:18:20.688Z,65.48
2022-12-31T22:22:36.951Z,65.87
2022-12-31T22:26:55.732Z,64.96
2022-12-31T22:31:15.585Z,66.07
2022-12-31T22:35:31.738Z,65.73
2022-12-31T22:39:47.963Z,66.64
2022-12-31T22:44:05.329Z,66.19
2022-12-31T22:48:21.486Z,66.52
2022-12-31T22:52:37.802Z,66.11
2022-12-31T22:56:54.046Z,65.83
2022-12-31T23:01:34.646Z,66.77
2022-12-31T23:05:52.709Z,66.70
2022-12-31T23:10:29.175Z,67.08
2022-12-31T23:15:04.111Z,68.32
2022-12-31T23:19:39.059Z,67.19
2022-12-31T23:23:55.214Z,67.51
2022-12-31T23:28:18.534Z,66.50
2022-12-31T23:32:34.719Z,66.93
2022-12-31T23:36:50.869Z,66.68
2022-12-31T23:41:18.455Z,66.03
2022-12-31T23:45:35.502Z,66.52
2022-12-31T23:49:51.676Z,66.43
2022-12-31T23:54:08.313Z,65.88
2022-12-31T23:58:25.155Z,65.88
